sensor_id;sensor_type;location;lat;lon;timestamp;P1;durP1;ratioP1;P2;durP2;ratioP2
72771;SDS011;60894;42.544;1.516;2023-04-06T00:00:38;3.50;;;0.70;;
72771;SDS011;60894;42.544;1.516;2023-04-06T00:03:06;1.43;;;0.67;;
72771;SDS011;60894;42.544;1.516;2023-04-06T00:05:33;2.80;;;0.68;;
72771;SDS011;60894;42.544;1.516;2023-04-06T00:08:00;1.92;;;0.68;;
72771;SDS011;60894;42.544;1.516;2023-04-06T00:10:27;2.58;;;0.60;;
72771;SDS011;60894;42.544;1.516;2023-04-06T00:12:54;4.65;;;1.02;;
72771;SDS011;60894;42.544;1.516;2023-04-06T00:15:22;2.70;;;0.70;;
72771;SDS011;60894;42.544;1.516;2023-04-06T00:17:49;2.10;;;0.65;;
72771;SDS011;60894;42.544;1.516;2023-04-06T00:20:18;1.10;;;0.40;;
72771;SDS011;60894;42.544;1.516;2023-04-06T00:22:45;5.20;;;1.30;;
72771;SDS011;60894;42.544;1.516;2023-04-06T00:25:12;3.30;;;0.90;;
72771;SDS011;60894;42.544;1.516;2023-04-06T00:27:40;3.47;;;0.90;;
72771;SDS011;60894;42.544;1.516;2023-04-06T00:30:08;2.30;;;0.60;;
72771;SDS011;60894;42.544;1.516;2023-04-06T00:32:35;2.45;;;0.70;;
72771;SDS011;60894;42.544;1.516;2023-04-06T00:35:02;0.68;;;0.38;;
72771;SDS011;60894;42.544;1.516;2023-04-06T00:37:32;4.22;;;1.15;;
72771;SDS011;60894;42.544;1.516;2023-04-06T00:39:59;2.47;;;0.60;;
72771;SDS011;60894;42.544;1.516;2023-04-06T00:42:27;4.88;;;0.80;;
72771;SDS011;60894;42.544;1.516;2023-04-06T00:44:54;1.85;;;0.60;;
72771;SDS011;60894;42.544;1.516;2023-04-06T00:47:23;1.83;;;0.50;;
72771;SDS011;60894;42.544;1.516;2023-04-06T00:49:51;1.08;;;0.40;;
72771;SDS011;60894;42.544;1.516;2023-04-06T00:52:19;3.37;;;0.67;;
72771;SDS011;60894;42.544;1.516;2023-04-06T00:54:48;1.50;;;0.60;;
72771;SDS011;60894;42.544;1.516;2023-04-06T00:57:15;2.08;;;0.60;;
72771;SDS011;60894;42.544;1.516;2023-04-06T00:59:42;2.72;;;0.73;;
72771;SDS011;60894;42.544;1.516;2023-04-06T01:02:10;2.25;;;0.55;;
72771;SDS011;60894;42.544;1.516;2023-04-06T01:04:37;2.90;;;1.10;;
72771;SDS011;60894;42.544;1.516;2023-04-06T01:07:04;2.33;;;0.70;;
72771;SDS011;60894;42.544;1.516;2023-04-06T01:09:31;2.05;;;0.60;;
72771;SDS011;60894;42.544;1.516;2023-04-06T01:11:59;3.83;;;0.60;;
72771;SDS011;60894;42.544;1.516;2023-04-06T01:14:27;2.63;;;0.60;;
72771;SDS011;60894;42.544;1.516;2023-04-06T01:16:54;1.17;;;0.30;;
72771;SDS011;60894;42.544;1.516;2023-04-06T01:19:24;1.80;;;0.55;;
72771;SDS011;60894;42.544;1.516;2023-04-06T01:21:51;0.63;;;0.30;;
72771;SDS011;60894;42.544;1.516;2023-04-06T01:24:20;1.20;;;0.45;;
72771;SDS011;60894;42.544;1.516;2023-04-06T01:26:47;1.33;;;0.40;;
72771;SDS011;60894;42.544;1.516;2023-04-06T01:29:14;1.60;;;0.50;;
72771;SDS011;60894;42.544;1.516;2023-04-06T01:31:41;2.10;;;0.70;;
72771;SDS011;60894;42.544;1.516;2023-04-06T01:34:08;2.72;;;0.60;;
72771;SDS011;60894;42.544;1.516;2023-04-06T01:36:35;1.33;;;0.50;;
72771;SDS011;60894;42.544;1.516;2023-04-06T01:39:02;2.97;;;0.40;;
72771;SDS011;60894;42.544;1.516;2023-04-06T01:41:31;1.80;;;0.47;;
72771;SDS011;60894;42.544;1.516;2023-04-06T01:43:58;1.42;;;0.40;;
72771;SDS011;60894;42.544;1.516;2023-04-06T01:46:25;1.00;;;0.32;;
72771;SDS011;60894;42.544;1.516;2023-04-06T01:48:52;1.58;;;0.40;;
72771;SDS011;60894;42.544;1.516;2023-04-06T01:51:19;1.02;;;0.40;;
72771;SDS011;60894;42.544;1.516;2023-04-06T01:53:46;1.93;;;0.40;;
72771;SDS011;60894;42.544;1.516;2023-04-06T01:56:13;2.15;;;0.52;;
72771;SDS011;60894;42.544;1.516;2023-04-06T01:58:41;0.57;;;0.30;;
72771;SDS011;60894;42.544;1.516;2023-04-06T02:01:08;1.17;;;0.50;;
72771;SDS011;60894;42.544;1.516;2023-04-06T02:03:36;2.80;;;0.43;;
72771;SDS011;60894;42.544;1.516;2023-04-06T02:06:03;1.90;;;0.30;;
72771;SDS011;60894;42.544;1.516;2023-04-06T02:08:30;1.40;;;0.50;;
72771;SDS011;60894;42.544;1.516;2023-04-06T02:10:57;1.17;;;0.30;;
72771;SDS011;60894;42.544;1.516;2023-04-06T02:13:24;0.93;;;0.40;;
72771;SDS011;60894;42.544;1.516;2023-04-06T02:15:52;2.70;;;0.40;;
72771;SDS011;60894;42.544;1.516;2023-04-06T02:18:19;0.60;;;0.30;;
72771;SDS011;60894;42.544;1.516;2023-04-06T02:20:47;1.05;;;0.30;;
72771;SDS011;60894;42.544;1.516;2023-04-06T02:23:14;1.95;;;0.43;;
72771;SDS011;60894;42.544;1.516;2023-04-06T02:25:41;1.55;;;0.40;;
72771;SDS011;60894;42.544;1.516;2023-04-06T02:28:08;0.45;;;0.30;;
72771;SDS011;60894;42.544;1.516;2023-04-06T02:30:35;0.87;;;0.30;;
72771;SDS011;60894;42.544;1.516;2023-04-06T02:33:03;0.10;;;0.10;;
72771;SDS011;60894;42.544;1.516;2023-04-06T02:35:31;0.32;;;0.20;;
72771;SDS011;60894;42.544;1.516;2023-04-06T02:37:58;1.27;;;0.20;;
72771;SDS011;60894;42.544;1.516;2023-04-06T02:40:25;0.80;;;0.15;;
72771;SDS011;60894;42.544;1.516;2023-04-06T02:42:52;0.40;;;0.20;;
72771;SDS011;60894;42.544;1.516;2023-04-06T02:45:19;1.20;;;0.30;;
72771;SDS011;60894;42.544;1.516;2023-04-06T02:47:46;1.60;;;0.40;;
72771;SDS011;60894;42.544;1.516;2023-04-06T02:50:14;0.93;;;0.30;;
72771;SDS011;60894;42.544;1.516;2023-04-06T02:52:41;0.52;;;0.20;;
72771;SDS011;60894;42.544;1.516;2023-04-06T02:55:08;1.07;;;0.20;;
72771;SDS011;60894;42.544;1.516;2023-04-06T02:57:35;3.10;;;0.30;;
72771;SDS011;60894;42.544;1.516;2023-04-06T03:00:03;1.88;;;0.40;;
72771;SDS011;60894;42.544;1.516;2023-04-06T03:02:31;1.40;;;0.40;;
72771;SDS011;60894;42.544;1.516;2023-04-06T03:04:58;0.30;;;0.10;;
72771;SDS011;60894;42.544;1.516;2023-04-06T03:07:27;0.40;;;0.20;;
72771;SDS011;60894;42.544;1.516;2023-04-06T03:09:54;1.17;;;0.30;;
72771;SDS011;60894;42.544;1.516;2023-04-06T03:12:21;1.75;;;0.50;;
72771;SDS011;60894;42.544;1.516;2023-04-06T03:14:48;1.67;;;0.35;;
72771;SDS011;60894;42.544;1.516;2023-04-06T03:17:15;0.88;;;0.30;;
72771;SDS011;60894;42.544;1.516;2023-04-06T03:19:42;0.77;;;0.20;;
72771;SDS011;60894;42.544;1.516;2023-04-06T03:22:09;1.55;;;0.38;;
72771;SDS011;60894;42.544;1.516;2023-04-06T03:24:37;0.70;;;0.30;;
72771;SDS011;60894;42.544;1.516;2023-04-06T03:27:04;0.40;;;0.20;;
72771;SDS011;60894;42.544;1.516;2023-04-06T03:29:31;1.27;;;0.20;;
72771;SDS011;60894;42.544;1.516;2023-04-06T03:31:58;0.60;;;0.20;;
72771;SDS011;60894;42.544;1.516;2023-04-06T03:34:25;0.38;;;0.20;;
72771;SDS011;60894;42.544;1.516;2023-04-06T03:36:52;0.80;;;0.20;;
72771;SDS011;60894;42.544;1.516;2023-04-06T03:39:19;0.10;;;0.10;;
72771;SDS011;60894;42.544;1.516;2023-04-06T03:41:48;0.10;;;0.10;;
72771;SDS011;60894;42.544;1.516;2023-04-06T03:44:15;0.63;;;0.30;;
72771;SDS011;60894;42.544;1.516;2023-04-06T03:46:42;0.57;;;0.22;;
72771;SDS011;60894;42.544;1.516;2023-04-06T03:49:09;0.60;;;0.22;;
72771;SDS011;60894;42.544;1.516;2023-04-06T03:51:36;1.13;;;0.32;;
72771;SDS011;60894;42.544;1.516;2023-04-06T03:54:03;1.10;;;0.20;;
72771;SDS011;60894;42.544;1.516;2023-04-06T03:56:30;0.53;;;0.30;;
72771;SDS011;60894;42.544;1.516;2023-04-06T03:58:58;0.10;;;0.10;;
72771;SDS011;60894;42.544;1.516;2023-04-06T04:01:26;0.65;;;0.40;;
72771;SDS011;60894;42.544;1.516;2023-04-06T04:03:53;0.40;;;0.13;;
72771;SDS011;60894;42.544;1.516;2023-04-06T04:06:20;0.20;;;0.13;;
72771;SDS011;60894;42.544;1.516;2023-04-06T04:08:47;0.87;;;0.40;;
72771;SDS011;60894;42.544;1.516;2023-04-06T04:11:14;0.52;;;0.10;;
72771;SDS011;60894;42.544;1.516;2023-04-06T04:13:42;0.70;;;0.30;;
72771;SDS011;60894;42.544;1.516;2023-04-06T04:16:10;0.30;;;0.20;;
72771;SDS011;60894;42.544;1.516;2023-04-06T04:18:37;0.47;;;0.20;;
72771;SDS011;60894;42.544;1.516;2023-04-06T04:21:04;0.90;;;0.30;;
72771;SDS011;60894;42.544;1.516;2023-04-06T04:23:31;0.50;;;0.30;;
72771;SDS011;60894;42.544;1.516;2023-04-06T04:25:58;0.30;;;0.20;;
72771;SDS011;60894;42.544;1.516;2023-04-06T04:28:25;0.88;;;0.25;;
72771;SDS011;60894;42.544;1.516;2023-04-06T04:30:52;0.10;;;0.10;;
72771;SDS011;60894;42.544;1.516;2023-04-06T04:33:20;1.23;;;0.30;;
72771;SDS011;60894;42.544;1.516;2023-04-06T04:35:47;2.42;;;0.30;;
72771;SDS011;60894;42.544;1.516;2023-04-06T04:38:14;1.15;;;0.30;;
72771;SDS011;60894;42.544;1.516;2023-04-06T04:40:41;1.85;;;0.22;;
72771;SDS011;60894;42.544;1.516;2023-04-06T04:43:08;0.63;;;0.20;;
72771;SDS011;60894;42.544;1.516;2023-04-06T04:45:36;1.80;;;0.30;;
72771;SDS011;60894;42.544;1.516;2023-04-06T04:48:03;1.15;;;0.30;;
72771;SDS011;60894;42.544;1.516;2023-04-06T04:50:32;0.52;;;0.30;;
72771;SDS011;60894;42.544;1.516;2023-04-06T04:52:59;1.38;;;0.38;;
72771;SDS011;60894;42.544;1.516;2023-04-06T04:55:26;3.08;;;0.77;;
72771;SDS011;60894;42.544;1.516;2023-04-06T04:57:54;2.23;;;0.73;;
72771;SDS011;60894;42.544;1.516;2023-04-06T05:00:21;1.00;;;0.40;;
72771;SDS011;60894;42.544;1.516;2023-04-06T05:02:48;1.17;;;0.30;;
72771;SDS011;60894;42.544;1.516;2023-04-06T05:05:15;0.73;;;0.30;;
72771;SDS011;60894;42.544;1.516;2023-04-06T05:07:44;3.35;;;0.40;;
72771;SDS011;60894;42.544;1.516;2023-04-06T05:10:11;2.67;;;0.60;;
72771;SDS011;60894;42.544;1.516;2023-04-06T05:12:38;1.45;;;0.65;;
72771;SDS011;60894;42.544;1.516;2023-04-06T05:15:05;1.73;;;0.70;;
72771;SDS011;60894;42.544;1.516;2023-04-06T05:17:33;0.38;;;0.28;;
72771;SDS011;60894;42.544;1.516;2023-04-06T05:20:00;0.80;;;0.40;;
72771;SDS011;60894;42.544;1.516;2023-04-06T05:22:27;4.73;;;0.50;;
72771;SDS011;60894;42.544;1.516;2023-04-06T05:24:55;1.67;;;0.70;;
72771;SDS011;60894;42.544;1.516;2023-04-06T05:27:23;5.05;;;0.80;;
72771;SDS011;60894;42.544;1.516;2023-04-06T05:29:50;1.33;;;0.40;;
72771;SDS011;60894;42.544;1.516;2023-04-06T05:32:17;1.52;;;0.50;;
72771;SDS011;60894;42.544;1.516;2023-04-06T05:34:47;2.10;;;0.50;;
72771;SDS011;60894;42.544;1.516;2023-04-06T05:37:14;2.25;;;0.50;;
72771;SDS011;60894;42.544;1.516;2023-04-06T05:39:42;3.63;;;0.60;;
72771;SDS011;60894;42.544;1.516;2023-04-06T05:42:10;3.63;;;0.95;;
72771;SDS011;60894;42.544;1.516;2023-04-06T05:44:37;2.95;;;0.80;;
72771;SDS011;60894;42.544;1.516;2023-04-06T05:47:05;1.30;;;0.50;;
72771;SDS011;60894;42.544;1.516;2023-04-06T05:49:32;3.90;;;1.10;;
72771;SDS011;60894;42.544;1.516;2023-04-06T05:51:59;5.00;;;1.08;;
72771;SDS011;60894;42.544;1.516;2023-04-06T05:54:26;2.08;;;0.80;;
72771;SDS011;60894;42.544;1.516;2023-04-06T05:56:53;2.45;;;0.70;;
72771;SDS011;60894;42.544;1.516;2023-04-06T05:59:22;1.87;;;0.90;;
72771;SDS011;60894;42.544;1.516;2023-04-06T06:01:49;5.18;;;1.10;;
72771;SDS011;60894;42.544;1.516;2023-04-06T06:04:16;3.65;;;0.95;;
72771;SDS011;60894;42.544;1.516;2023-04-06T06:06:43;4.65;;;1.20;;
72771;SDS011;60894;42.544;1.516;2023-04-06T06:09:10;4.65;;;1.15;;
72771;SDS011;60894;42.544;1.516;2023-04-06T06:11:37;4.53;;;1.00;;
72771;SDS011;60894;42.544;1.516;2023-04-06T06:14:04;3.53;;;1.05;;
72771;SDS011;60894;42.544;1.516;2023-04-06T06:16:33;4.95;;;1.80;;
72771;SDS011;60894;42.544;1.516;2023-04-06T06:19:00;6.13;;;2.13;;
72771;SDS011;60894;42.544;1.516;2023-04-06T06:21:27;4.78;;;2.05;;
72771;SDS011;60894;42.544;1.516;2023-04-06T06:23:55;6.13;;;2.27;;
72771;SDS011;60894;42.544;1.516;2023-04-06T06:26:22;6.50;;;1.50;;
72771;SDS011;60894;42.544;1.516;2023-04-06T06:28:49;3.65;;;1.23;;
72771;SDS011;60894;42.544;1.516;2023-04-06T06:31:16;5.25;;;1.40;;
72771;SDS011;60894;42.544;1.516;2023-04-06T06:33:47;3.53;;;1.40;;
72771;SDS011;60894;42.544;1.516;2023-04-06T06:36:15;3.70;;;1.57;;
72771;SDS011;60894;42.544;1.516;2023-04-06T06:38:43;5.53;;;1.60;;
72771;SDS011;60894;42.544;1.516;2023-04-06T06:41:10;7.18;;;1.67;;
72771;SDS011;60894;42.544;1.516;2023-04-06T06:43:37;5.75;;;1.58;;
72771;SDS011;60894;42.544;1.516;2023-04-06T06:46:04;5.60;;;1.65;;
72771;SDS011;60894;42.544;1.516;2023-04-06T06:48:31;5.90;;;1.50;;
72771;SDS011;60894;42.544;1.516;2023-04-06T06:51:00;9.13;;;2.03;;
72771;SDS011;60894;42.544;1.516;2023-04-06T06:53:27;7.07;;;2.25;;
72771;SDS011;60894;42.544;1.516;2023-04-06T06:55:54;2.33;;;1.10;;
72771;SDS011;60894;42.544;1.516;2023-04-06T06:58:21;6.80;;;1.30;;
72771;SDS011;60894;42.544;1.516;2023-04-06T07:00:48;4.77;;;1.67;;
72771;SDS011;60894;42.544;1.516;2023-04-06T07:03:15;7.20;;;2.40;;
72771;SDS011;60894;42.544;1.516;2023-04-06T07:05:45;5.05;;;2.13;;
72771;SDS011;60894;42.544;1.516;2023-04-06T07:08:19;6.55;;;2.42;;
72771;SDS011;60894;42.544;1.516;2023-04-06T07:10:46;5.50;;;1.90;;
72771;SDS011;60894;42.544;1.516;2023-04-06T07:13:13;7.13;;;2.30;;
72771;SDS011;60894;42.544;1.516;2023-04-06T07:15:47;5.38;;;2.20;;
72771;SDS011;60894;42.544;1.516;2023-04-06T07:18:14;4.90;;;1.92;;
72771;SDS011;60894;42.544;1.516;2023-04-06T07:20:41;8.82;;;3.22;;
72771;SDS011;60894;42.544;1.516;2023-04-06T07:23:08;4.07;;;2.03;;
72771;SDS011;60894;42.544;1.516;2023-04-06T07:25:36;6.03;;;1.73;;
72771;SDS011;60894;42.544;1.516;2023-04-06T07:28:03;3.20;;;1.50;;
72771;SDS011;60894;42.544;1.516;2023-04-06T07:30:30;4.38;;;1.70;;
72771;SDS011;60894;42.544;1.516;2023-04-06T07:32:58;4.50;;;1.80;;
72771;SDS011;60894;42.544;1.516;2023-04-06T07:35:26;4.05;;;1.80;;
72771;SDS011;60894;42.544;1.516;2023-04-06T07:37:55;3.77;;;1.53;;
72771;SDS011;60894;42.544;1.516;2023-04-06T07:40:22;4.00;;;1.40;;
72771;SDS011;60894;42.544;1.516;2023-04-06T07:42:50;1.83;;;1.02;;
72771;SDS011;60894;42.544;1.516;2023-04-06T07:45:17;4.35;;;1.00;;
72771;SDS011;60894;42.544;1.516;2023-04-06T07:47:45;2.92;;;1.25;;
72771;SDS011;60894;42.544;1.516;2023-04-06T07:50:12;3.03;;;1.10;;
72771;SDS011;60894;42.544;1.516;2023-04-06T07:52:39;3.75;;;0.90;;
72771;SDS011;60894;42.544;1.516;2023-04-06T07:55:06;1.30;;;0.80;;
72771;SDS011;60894;42.544;1.516;2023-04-06T07:57:34;4.05;;;2.00;;
72771;SDS011;60894;42.544;1.516;2023-04-06T08:00:03;3.55;;;1.40;;
72771;SDS011;60894;42.544;1.516;2023-04-06T08:02:31;3.30;;;1.33;;
72771;SDS011;60894;42.544;1.516;2023-04-06T08:04:58;2.58;;;1.17;;
72771;SDS011;60894;42.544;1.516;2023-04-06T08:07:25;1.77;;;1.00;;
72771;SDS011;60894;42.544;1.516;2023-04-06T08:09:52;6.30;;;1.27;;
72771;SDS011;60894;42.544;1.516;2023-04-06T08:12:19;3.63;;;1.30;;
72771;SDS011;60894;42.544;1.516;2023-04-06T08:14:46;4.93;;;1.17;;
72771;SDS011;60894;42.544;1.516;2023-04-06T08:17:15;1.95;;;1.10;;
72771;SDS011;60894;42.544;1.516;2023-04-06T08:19:42;2.67;;;1.08;;
72771;SDS011;60894;42.544;1.516;2023-04-06T08:22:10;2.63;;;0.82;;
72771;SDS011;60894;42.544;1.516;2023-04-06T08:24:37;2.42;;;0.73;;
72771;SDS011;60894;42.544;1.516;2023-04-06T08:27:04;3.47;;;1.10;;
72771;SDS011;60894;42.544;1.516;2023-04-06T08:29:31;3.10;;;1.17;;
72771;SDS011;60894;42.544;1.516;2023-04-06T08:31:58;4.72;;;1.20;;
72771;SDS011;60894;42.544;1.516;2023-04-06T08:34:29;6.50;;;1.67;;
72771;SDS011;60894;42.544;1.516;2023-04-06T08:36:56;4.13;;;1.27;;
72771;SDS011;60894;42.544;1.516;2023-04-06T08:39:23;3.07;;;1.00;;
72771;SDS011;60894;42.544;1.516;2023-04-06T08:41:52;5.32;;;1.30;;
72771;SDS011;60894;42.544;1.516;2023-04-06T08:44:22;8.65;;;1.17;;
72771;SDS011;60894;42.544;1.516;2023-04-06T08:46:49;4.28;;;1.33;;
72771;SDS011;60894;42.544;1.516;2023-04-06T08:49:17;1.88;;;0.85;;
72771;SDS011;60894;42.544;1.516;2023-04-06T08:51:46;3.47;;;1.00;;
72771;SDS011;60894;42.544;1.516;2023-04-06T08:54:13;3.33;;;1.10;;
72771;SDS011;60894;42.544;1.516;2023-04-06T08:56:41;3.90;;;1.50;;
72771;SDS011;60894;42.544;1.516;2023-04-06T08:59:09;6.60;;;1.73;;
72771;SDS011;60894;42.544;1.516;2023-04-06T09:01:38;3.65;;;1.15;;
72771;SDS011;60894;42.544;1.516;2023-04-06T09:04:07;4.30;;;1.30;;
72771;SDS011;60894;42.544;1.516;2023-04-06T09:06:36;3.33;;;1.30;;
72771;SDS011;60894;42.544;1.516;2023-04-06T09:09:04;2.88;;;1.00;;
72771;SDS011;60894;42.544;1.516;2023-04-06T09:11:41;3.50;;;0.85;;
72771;SDS011;60894;42.544;1.516;2023-04-06T09:14:09;3.92;;;0.90;;
72771;SDS011;60894;42.544;1.516;2023-04-06T09:16:38;2.70;;;1.00;;
72771;SDS011;60894;42.544;1.516;2023-04-06T09:19:07;3.10;;;0.80;;
72771;SDS011;60894;42.544;1.516;2023-04-06T09:21:34;2.67;;;1.10;;
72771;SDS011;60894;42.544;1.516;2023-04-06T09:24:02;2.67;;;0.88;;
72771;SDS011;60894;42.544;1.516;2023-04-06T09:26:31;3.10;;;0.90;;
72771;SDS011;60894;42.544;1.516;2023-04-06T09:28:59;2.53;;;0.90;;
72771;SDS011;60894;42.544;1.516;2023-04-06T09:31:26;2.15;;;0.75;;
72771;SDS011;60894;42.544;1.516;2023-04-06T09:33:54;2.33;;;1.00;;
72771;SDS011;60894;42.544;1.516;2023-04-06T09:36:29;4.50;;;1.33;;
72771;SDS011;60894;42.544;1.516;2023-04-06T09:38:58;2.15;;;1.10;;
72771;SDS011;60894;42.544;1.516;2023-04-06T09:41:27;3.57;;;1.13;;
72771;SDS011;60894;42.544;1.516;2023-04-06T09:44:04;9.15;;;1.10;;
72771;SDS011;60894;42.544;1.516;2023-04-06T09:46:32;3.72;;;0.90;;
72771;SDS011;60894;42.544;1.516;2023-04-06T09:49:00;3.53;;;0.77;;
72771;SDS011;60894;42.544;1.516;2023-04-06T09:51:30;3.78;;;0.88;;
72771;SDS011;60894;42.544;1.516;2023-04-06T09:53:57;3.47;;;1.33;;
72771;SDS011;60894;42.544;1.516;2023-04-06T09:56:28;3.47;;;1.50;;
72771;SDS011;60894;42.544;1.516;2023-04-06T09:59:04;3.33;;;1.00;;
72771;SDS011;60894;42.544;1.516;2023-04-06T10:01:39;3.63;;;0.80;;
72771;SDS011;60894;42.544;1.516;2023-04-06T10:04:09;2.20;;;1.10;;
72771;SDS011;60894;42.544;1.516;2023-04-06T10:06:48;3.93;;;1.10;;
72771;SDS011;60894;42.544;1.516;2023-04-06T10:09:17;3.25;;;1.00;;
72771;SDS011;60894;42.544;1.516;2023-04-06T10:11:47;3.50;;;1.08;;
72771;SDS011;60894;42.544;1.516;2023-04-06T10:14:16;2.38;;;0.90;;
72771;SDS011;60894;42.544;1.516;2023-04-06T10:16:44;2.60;;;0.82;;
72771;SDS011;60894;42.544;1.516;2023-04-06T10:19:15;5.37;;;1.33;;
72771;SDS011;60894;42.544;1.516;2023-04-06T10:21:48;3.10;;;0.90;;
72771;SDS011;60894;42.544;1.516;2023-04-06T10:24:19;3.90;;;1.13;;
72771;SDS011;60894;42.544;1.516;2023-04-06T10:26:56;2.55;;;0.90;;
72771;SDS011;60894;42.544;1.516;2023-04-06T10:29:25;1.88;;;0.88;;
72771;SDS011;60894;42.544;1.516;2023-04-06T10:31:52;2.93;;;0.90;;
72771;SDS011;60894;42.544;1.516;2023-04-06T10:34:20;3.20;;;0.90;;
72771;SDS011;60894;42.544;1.516;2023-04-06T10:36:47;2.90;;;0.80;;
72771;SDS011;60894;42.544;1.516;2023-04-06T10:39:14;1.95;;;0.70;;
72771;SDS011;60894;42.544;1.516;2023-04-06T10:41:52;3.65;;;0.90;;
72771;SDS011;60894;42.544;1.516;2023-04-06T10:44:20;1.93;;;0.77;;
72771;SDS011;60894;42.544;1.516;2023-04-06T10:46:55;2.70;;;1.10;;
72771;SDS011;60894;42.544;1.516;2023-04-06T10:49:25;1.75;;;1.00;;
72771;SDS011;60894;42.544;1.516;2023-04-06T10:51:53;3.70;;;1.10;;
72771;SDS011;60894;42.544;1.516;2023-04-06T10:54:21;3.40;;;1.15;;
72771;SDS011;60894;42.544;1.516;2023-04-06T10:56:50;5.93;;;1.50;;
72771;SDS011;60894;42.544;1.516;2023-04-06T10:59:18;2.17;;;0.90;;
72771;SDS011;60894;42.544;1.516;2023-04-06T11:01:45;5.85;;;1.15;;
72771;SDS011;60894;42.544;1.516;2023-04-06T11:04:17;3.55;;;1.02;;
72771;SDS011;60894;42.544;1.516;2023-04-06T11:06:46;2.55;;;1.10;;
72771;SDS011;60894;42.544;1.516;2023-04-06T11:09:23;2.60;;;0.80;;
72771;SDS011;60894;42.544;1.516;2023-04-06T11:11:51;5.18;;;1.67;;
72771;SDS011;60894;42.544;1.516;2023-04-06T11:14:18;3.13;;;1.10;;
72771;SDS011;60894;42.544;1.516;2023-04-06T11:16:46;2.63;;;0.90;;
72771;SDS011;60894;42.544;1.516;2023-04-06T11:19:15;3.08;;;0.50;;
72771;SDS011;60894;42.544;1.516;2023-04-06T11:21:44;3.73;;;1.00;;
72771;SDS011;60894;42.544;1.516;2023-04-06T11:24:13;1.42;;;0.80;;
72771;SDS011;60894;42.544;1.516;2023-04-06T11:26:42;3.10;;;0.80;;
72771;SDS011;60894;42.544;1.516;2023-04-06T11:29:11;2.72;;;0.80;;
72771;SDS011;60894;42.544;1.516;2023-04-06T11:31:42;2.30;;;0.80;;
72771;SDS011;60894;42.544;1.516;2023-04-06T11:34:12;2.83;;;0.70;;
72771;SDS011;60894;42.544;1.516;2023-04-06T11:36:41;1.30;;;0.60;;
72771;SDS011;60894;42.544;1.516;2023-04-06T11:39:12;5.15;;;0.80;;
72771;SDS011;60894;42.544;1.516;2023-04-06T11:41:42;1.27;;;0.50;;
72771;SDS011;60894;42.544;1.516;2023-04-06T11:44:13;3.80;;;1.23;;
72771;SDS011;60894;42.544;1.516;2023-04-06T11:46:40;1.73;;;0.73;;
72771;SDS011;60894;42.544;1.516;2023-04-06T11:49:07;1.65;;;0.55;;
72771;SDS011;60894;42.544;1.516;2023-04-06T11:51:35;2.00;;;0.68;;
72771;SDS011;60894;42.544;1.516;2023-04-06T11:54:04;0.95;;;0.60;;
72771;SDS011;60894;42.544;1.516;2023-04-06T11:56:31;2.08;;;0.82;;
72771;SDS011;60894;42.544;1.516;2023-04-06T11:58:58;2.47;;;0.87;;
72771;SDS011;60894;42.544;1.516;2023-04-06T12:01:25;1.10;;;0.60;;
72771;SDS011;60894;42.544;1.516;2023-04-06T12:03:53;2.63;;;0.68;;
72771;SDS011;60894;42.544;1.516;2023-04-06T12:06:20;2.47;;;0.70;;
72771;SDS011;60894;42.544;1.516;2023-04-06T12:08:47;2.20;;;1.00;;
72771;SDS011;60894;42.544;1.516;2023-04-06T12:11:15;4.83;;;0.70;;
72771;SDS011;60894;42.544;1.516;2023-04-06T12:13:43;6.22;;;0.90;;
72771;SDS011;60894;42.544;1.516;2023-04-06T12:16:10;2.33;;;0.90;;
72771;SDS011;60894;42.544;1.516;2023-04-06T12:18:37;2.00;;;0.77;;
72771;SDS011;60894;42.544;1.516;2023-04-06T12:21:04;2.15;;;0.80;;
72771;SDS011;60894;42.544;1.516;2023-04-06T12:23:31;3.40;;;0.60;;
72771;SDS011;60894;42.544;1.516;2023-04-06T12:25:58;5.40;;;1.10;;
72771;SDS011;60894;42.544;1.516;2023-04-06T12:28:27;3.67;;;0.90;;
72771;SDS011;60894;42.544;1.516;2023-04-06T12:30:54;3.40;;;0.90;;
72771;SDS011;60894;42.544;1.516;2023-04-06T12:33:21;1.98;;;0.57;;
72771;SDS011;60894;42.544;1.516;2023-04-06T12:35:48;3.27;;;0.60;;
72771;SDS011;60894;42.544;1.516;2023-04-06T12:38:15;2.53;;;0.60;;
72771;SDS011;60894;42.544;1.516;2023-04-06T12:40:42;3.33;;;0.90;;
72771;SDS011;60894;42.544;1.516;2023-04-06T12:43:10;2.97;;;0.80;;
72771;SDS011;60894;42.544;1.516;2023-04-06T12:45:39;1.77;;;0.60;;
72771;SDS011;60894;42.544;1.516;2023-04-06T12:48:07;2.53;;;0.83;;
72771;SDS011;60894;42.544;1.516;2023-04-06T12:50:34;3.17;;;0.82;;
72771;SDS011;60894;42.544;1.516;2023-04-06T12:53:01;1.88;;;0.60;;
72771;SDS011;60894;42.544;1.516;2023-04-06T12:55:29;5.43;;;0.80;;
72771;SDS011;60894;42.544;1.516;2023-04-06T12:57:59;4.75;;;0.90;;
72771;SDS011;60894;42.544;1.516;2023-04-06T13:00:26;2.97;;;0.70;;
72771;SDS011;60894;42.544;1.516;2023-04-06T13:02:55;4.50;;;1.05;;
72771;SDS011;60894;42.544;1.516;2023-04-06T13:05:22;2.63;;;0.90;;
72771;SDS011;60894;42.544;1.516;2023-04-06T13:07:49;2.45;;;0.55;;
72771;SDS011;60894;42.544;1.516;2023-04-06T13:10:16;3.70;;;0.90;;
72771;SDS011;60894;42.544;1.516;2023-04-06T13:12:43;2.73;;;0.80;;
72771;SDS011;60894;42.544;1.516;2023-04-06T13:15:10;2.30;;;0.75;;
72771;SDS011;60894;42.544;1.516;2023-04-06T13:17:37;2.15;;;0.80;;
72771;SDS011;60894;42.544;1.516;2023-04-06T13:20:06;4.03;;;1.15;;
72771;SDS011;60894;42.544;1.516;2023-04-06T13:22:34;1.73;;;0.55;;
72771;SDS011;60894;42.544;1.516;2023-04-06T13:25:01;2.20;;;0.50;;
72771;SDS011;60894;42.544;1.516;2023-04-06T13:27:28;2.42;;;0.50;;
72771;SDS011;60894;42.544;1.516;2023-04-06T13:29:58;2.90;;;0.70;;
72771;SDS011;60894;42.544;1.516;2023-04-06T13:32:26;2.92;;;0.90;;
72771;SDS011;60894;42.544;1.516;2023-04-06T13:34:54;2.40;;;0.68;;
72771;SDS011;60894;42.544;1.516;2023-04-06T13:37:22;4.30;;;0.80;;
72771;SDS011;60894;42.544;1.516;2023-04-06T13:39:49;6.53;;;1.20;;
72771;SDS011;60894;42.544;1.516;2023-04-06T13:42:16;5.00;;;0.80;;
72771;SDS011;60894;42.544;1.516;2023-04-06T13:44:43;2.83;;;0.90;;
72771;SDS011;60894;42.544;1.516;2023-04-06T13:47:12;6.93;;;0.73;;
72771;SDS011;60894;42.544;1.516;2023-04-06T13:49:40;3.23;;;0.60;;
72771;SDS011;60894;42.544;1.516;2023-04-06T13:52:07;3.58;;;0.85;;
72771;SDS011;60894;42.544;1.516;2023-04-06T13:54:37;1.13;;;0.70;;
72771;SDS011;60894;42.544;1.516;2023-04-06T13:57:04;2.00;;;0.50;;
72771;SDS011;60894;42.544;1.516;2023-04-06T13:59:32;2.13;;;0.70;;
72771;SDS011;60894;42.544;1.516;2023-04-06T14:02:00;1.80;;;0.50;;
72771;SDS011;60894;42.544;1.516;2023-04-06T14:04:27;3.55;;;0.90;;
72771;SDS011;60894;42.544;1.516;2023-04-06T14:06:54;2.67;;;0.80;;
72771;SDS011;60894;42.544;1.516;2023-04-06T14:09:20;2.08;;;0.90;;
72771;SDS011;60894;42.544;1.516;2023-04-06T14:11:49;1.27;;;0.50;;
72771;SDS011;60894;42.544;1.516;2023-04-06T14:14:16;2.50;;;0.73;;
72771;SDS011;60894;42.544;1.516;2023-04-06T14:16:43;1.83;;;0.77;;
72771;SDS011;60894;42.544;1.516;2023-04-06T14:19:10;4.32;;;0.80;;
72771;SDS011;60894;42.544;1.516;2023-04-06T14:21:37;1.48;;;0.80;;
72771;SDS011;60894;42.544;1.516;2023-04-06T14:24:05;1.88;;;0.73;;
72771;SDS011;60894;42.544;1.516;2023-04-06T14:26:33;2.07;;;0.50;;
72771;SDS011;60894;42.544;1.516;2023-04-06T14:29:02;2.78;;;0.60;;
72771;SDS011;60894;42.544;1.516;2023-04-06T14:31:30;1.60;;;0.52;;
72771;SDS011;60894;42.544;1.516;2023-04-06T14:33:57;2.17;;;0.50;;
72771;SDS011;60894;42.544;1.516;2023-04-06T14:36:27;2.28;;;0.60;;
72771;SDS011;60894;42.544;1.516;2023-04-06T14:38:54;0.80;;;0.47;;
72771;SDS011;60894;42.544;1.516;2023-04-06T14:41:23;1.17;;;0.40;;
72771;SDS011;60894;42.544;1.516;2023-04-06T14:43:51;1.85;;;0.80;;
72771;SDS011;60894;42.544;1.516;2023-04-06T14:46:20;2.95;;;0.68;;
72771;SDS011;60894;42.544;1.516;2023-04-06T14:48:46;2.78;;;0.60;;
72771;SDS011;60894;42.544;1.516;2023-04-06T14:51:13;1.60;;;0.77;;